sensor_id;sensor_type;location;lat;lon;timestamp;P1;durP1;ratioP1;P2;durP2;ratioP2
25905;SDS011;13713;52.552;13.204;2023-02-23T00:01:39;23.90;;;11.60;;
25905;SDS011;13713;52.552;13.204;2023-02-23T00:04:06;24.83;;;12.50;;
25905;SDS011;13713;52.552;13.204;2023-02-23T00:06:33;24.50;;;13.02;;
25905;SDS011;13713;52.552;13.204;2023-02-23T00:09:00;25.08;;;12.43;;
25905;SDS011;13713;52.552;13.204;2023-02-23T00:11:30;23.23;;;12.83;;
25905;SDS011;13713;52.552;13.204;2023-02-23T00:13:57;22.52;;;13.00;;
25905;SDS011;13713;52.552;13.204;2023-02-23T00:16:25;20.92;;;12.75;;
25905;SDS011;13713;52.552;13.204;2023-02-23T00:18:52;22.65;;;13.13;;
25905;SDS011;13713;52.552;13.204;2023-02-23T00:21:20;21.95;;;12.93;;
25905;SDS011;13713;52.552;13.204;2023-02-23T00:23:47;27.48;;;13.27;;
25905;SDS011;13713;52.552;13.204;2023-02-23T00:26:13;25.35;;;13.70;;
25905;SDS011;13713;52.552;13.204;2023-02-23T00:28:40;24.60;;;12.57;;
25905;SDS011;13713;52.552;13.204;2023-02-23T00:31:07;28.40;;;13.95;;
25905;SDS011;13713;52.552;13.204;2023-02-23T00:33:36;26.58;;;12.30;;
25905;SDS011;13713;52.552;13.204;2023-02-23T00:36:03;25.38;;;12.32;;
25905;SDS011;13713;52.552;13.204;2023-02-23T00:38:30;22.95;;;13.15;;
25905;SDS011;13713;52.552;13.204;2023-02-23T00:41:03;25.23;;;13.05;;
25905;SDS011;13713;52.552;13.204;2023-02-23T00:43:39;23.75;;;12.88;;
25905;SDS011;13713;52.552;13.204;2023-02-23T00:46:15;25.75;;;13.25;;
25905;SDS011;13713;52.552;13.204;2023-02-23T00:48:45;22.23;;;14.73;;
25905;SDS011;13713;52.552;13.204;2023-02-23T00:51:13;24.83;;;13.70;;
25905;SDS011;13713;52.552;13.204;2023-02-23T00:53:40;23.40;;;13.73;;
25905;SDS011;13713;52.552;13.204;2023-02-23T00:56:08;25.08;;;13.48;;
25905;SDS011;13713;52.552;13.204;2023-02-23T00:58:35;23.38;;;14.00;;
25905;SDS011;13713;52.552;13.204;2023-02-23T01:01:04;26.33;;;13.48;;
25905;SDS011;13713;52.552;13.204;2023-02-23T01:03:34;26.92;;;13.70;;
25905;SDS011;13713;52.552;13.204;2023-02-23T01:06:04;31.02;;;15.07;;
25905;SDS011;13713;52.552;13.204;2023-02-23T01:08:32;25.95;;;14.45;;
25905;SDS011;13713;52.552;13.204;2023-02-23T01:11:04;25.83;;;14.30;;
25905;SDS011;13713;52.552;13.204;2023-02-23T01:15:56;26.95;;;15.05;;
25905;SDS011;13713;52.552;13.204;2023-02-23T01:18:24;26.85;;;14.85;;
25905;SDS011;13713;52.552;13.204;2023-02-23T01:20:49;27.33;;;14.15;;
25905;SDS011;13713;52.552;13.204;2023-02-23T01:23:15;24.38;;;14.63;;
25905;SDS011;13713;52.552;13.204;2023-02-23T01:25:42;27.92;;;15.32;;
25905;SDS011;13713;52.552;13.204;2023-02-23T01:28:09;25.95;;;15.30;;
25905;SDS011;13713;52.552;13.204;2023-02-23T01:30:36;28.58;;;15.30;;
25905;SDS011;13713;52.552;13.204;2023-02-23T01:33:02;26.63;;;15.00;;
25905;SDS011;13713;52.552;13.204;2023-02-23T01:35:28;26.20;;;15.15;;
25905;SDS011;13713;52.552;13.204;2023-02-23T01:37:54;27.90;;;15.75;;
25905;SDS011;13713;52.552;13.204;2023-02-23T01:40:21;25.70;;;15.18;;
25905;SDS011;13713;52.552;13.204;2023-02-23T01:43:12;29.92;;;15.52;;
25905;SDS011;13713;52.552;13.204;2023-02-23T01:45:41;31.00;;;16.10;;
25905;SDS011;13713;52.552;13.204;2023-02-23T01:48:12;22.30;;;14.57;;
25905;SDS011;13713;52.552;13.204;2023-02-23T01:50:47;30.17;;;15.10;;
25905;SDS011;13713;52.552;13.204;2023-02-23T01:53:18;27.48;;;16.20;;
25905;SDS011;13713;52.552;13.204;2023-02-23T01:55:49;29.92;;;16.67;;
25905;SDS011;13713;52.552;13.204;2023-02-23T01:58:21;29.50;;;17.08;;
25905;SDS011;13713;52.552;13.204;2023-02-23T02:00:49;31.27;;;16.38;;
25905;SDS011;13713;52.552;13.204;2023-02-23T02:03:22;24.98;;;15.75;;
25905;SDS011;13713;52.552;13.204;2023-02-23T02:05:59;31.85;;;16.67;;
25905;SDS011;13713;52.552;13.204;2023-02-23T02:08:30;31.23;;;16.13;;
25905;SDS011;13713;52.552;13.204;2023-02-23T02:10:57;31.17;;;17.10;;
25905;SDS011;13713;52.552;13.204;2023-02-23T02:13:27;29.02;;;17.30;;
25905;SDS011;13713;52.552;13.204;2023-02-23T02:21:39;27.73;;;16.02;;
25905;SDS011;13713;52.552;13.204;2023-02-23T02:27:06;27.73;;;16.15;;
25905;SDS011;13713;52.552;13.204;2023-02-23T02:47:08;28.77;;;16.70;;
25905;SDS011;13713;52.552;13.204;2023-02-23T02:49:43;34.42;;;18.13;;
25905;SDS011;13713;52.552;13.204;2023-02-23T02:52:18;28.92;;;17.13;;
25905;SDS011;13713;52.552;13.204;2023-02-23T02:54:56;31.00;;;17.55;;
25905;SDS011;13713;52.552;13.204;2023-02-23T02:57:29;33.25;;;18.40;;
25905;SDS011;13713;52.552;13.204;2023-02-23T02:59:57;31.15;;;17.13;;
25905;SDS011;13713;52.552;13.204;2023-02-23T03:02:41;30.80;;;17.48;;
25905;SDS011;13713;52.552;13.204;2023-02-23T03:05:44;26.75;;;18.05;;
25905;SDS011;13713;52.552;13.204;2023-02-23T03:11:36;30.90;;;17.20;;
25905;SDS011;13713;52.552;13.204;2023-02-23T03:14:28;29.33;;;17.33;;
25905;SDS011;13713;52.552;13.204;2023-02-23T03:29:07;30.65;;;18.75;;
25905;SDS011;13713;52.552;13.204;2023-02-23T03:32:16;36.10;;;19.30;;
25905;SDS011;13713;52.552;13.204;2023-02-23T03:35:12;32.20;;;18.23;;
25905;SDS011;13713;52.552;13.204;2023-02-23T03:38:05;38.22;;;20.63;;
25905;SDS011;13713;52.552;13.204;2023-02-23T03:40:56;33.22;;;18.95;;
25905;SDS011;13713;52.552;13.204;2023-02-23T03:43:48;34.53;;;19.83;;
25905;SDS011;13713;52.552;13.204;2023-02-23T03:46:38;33.35;;;19.05;;
25905;SDS011;13713;52.552;13.204;2023-02-23T03:49:25;35.50;;;18.80;;
25905;SDS011;13713;52.552;13.204;2023-02-23T03:52:18;33.83;;;19.15;;
25905;SDS011;13713;52.552;13.204;2023-02-23T03:55:15;33.60;;;19.45;;
25905;SDS011;13713;52.552;13.204;2023-02-23T03:58:01;34.10;;;19.02;;
25905;SDS011;13713;52.552;13.204;2023-02-23T04:00:49;33.60;;;20.40;;
25905;SDS011;13713;52.552;13.204;2023-02-23T04:03:37;32.92;;;18.73;;
25905;SDS011;13713;52.552;13.204;2023-02-23T04:06:26;36.95;;;20.50;;
25905;SDS011;13713;52.552;13.204;2023-02-23T04:09:14;34.78;;;20.23;;
25905;SDS011;13713;52.552;13.204;2023-02-23T04:14:51;36.78;;;19.70;;
25905;SDS011;13713;52.552;13.204;2023-02-23T04:17:25;36.47;;;19.50;;
25905;SDS011;13713;52.552;13.204;2023-02-23T04:22:20;35.45;;;20.55;;
25905;SDS011;13713;52.552;13.204;2023-02-23T04:24:46;34.05;;;19.25;;
25905;SDS011;13713;52.552;13.204;2023-02-23T04:27:12;35.42;;;19.77;;
25905;SDS011;13713;52.552;13.204;2023-02-23T04:29:39;31.45;;;19.05;;
25905;SDS011;13713;52.552;13.204;2023-02-23T04:32:05;34.85;;;19.45;;
25905;SDS011;13713;52.552;13.204;2023-02-23T04:34:32;35.40;;;20.25;;
25905;SDS011;13713;52.552;13.204;2023-02-23T04:36:58;37.72;;;20.75;;
25905;SDS011;13713;52.552;13.204;2023-02-23T04:39:23;35.85;;;20.73;;
25905;SDS011;13713;52.552;13.204;2023-02-23T04:41:49;34.63;;;19.63;;
25905;SDS011;13713;52.552;13.204;2023-02-23T04:44:15;35.75;;;20.88;;
25905;SDS011;13713;52.552;13.204;2023-02-23T04:46:41;37.35;;;20.30;;
25905;SDS011;13713;52.552;13.204;2023-02-23T04:49:07;38.00;;;19.98;;
25905;SDS011;13713;52.552;13.204;2023-02-23T04:51:33;35.28;;;20.30;;
25905;SDS011;13713;52.552;13.204;2023-02-23T04:54:01;35.08;;;20.08;;
25905;SDS011;13713;52.552;13.204;2023-02-23T04:56:27;35.88;;;20.98;;
25905;SDS011;13713;52.552;13.204;2023-02-23T04:58:53;34.45;;;20.02;;
25905;SDS011;13713;52.552;13.204;2023-02-23T05:01:19;38.80;;;21.65;;
25905;SDS011;13713;52.552;13.204;2023-02-23T05:03:49;35.25;;;22.23;;
25905;SDS011;13713;52.552;13.204;2023-02-23T05:06:17;36.00;;;21.70;;
25905;SDS011;13713;52.552;13.204;2023-02-23T05:08:44;35.72;;;21.83;;
25905;SDS011;13713;52.552;13.204;2023-02-23T05:11:10;39.28;;;23.08;;
25905;SDS011;13713;52.552;13.204;2023-02-23T05:13:36;40.00;;;23.75;;
25905;SDS011;13713;52.552;13.204;2023-02-23T05:16:02;37.22;;;22.80;;
25905;SDS011;13713;52.552;13.204;2023-02-23T05:18:28;40.67;;;24.10;;
25905;SDS011;13713;52.552;13.204;2023-02-23T05:21:00;39.03;;;23.67;;
25905;SDS011;13713;52.552;13.204;2023-02-23T05:23:26;41.83;;;24.80;;
25905;SDS011;13713;52.552;13.204;2023-02-23T05:25:52;44.47;;;25.83;;
25905;SDS011;13713;52.552;13.204;2023-02-23T05:28:18;43.78;;;25.02;;
25905;SDS011;13713;52.552;13.204;2023-02-23T05:30:44;52.03;;;30.23;;
25905;SDS011;13713;52.552;13.204;2023-02-23T05:33:10;47.00;;;30.02;;
25905;SDS011;13713;52.552;13.204;2023-02-23T05:35:38;47.97;;;29.38;;
25905;SDS011;13713;52.552;13.204;2023-02-23T05:38:05;45.45;;;27.50;;
25905;SDS011;13713;52.552;13.204;2023-02-23T05:40:30;49.55;;;30.08;;
25905;SDS011;13713;52.552;13.204;2023-02-23T05:42:59;49.78;;;30.33;;
25905;SDS011;13713;52.552;13.204;2023-02-23T05:45:25;56.35;;;32.08;;
25905;SDS011;13713;52.552;13.204;2023-02-23T05:47:50;64.53;;;39.63;;
25905;SDS011;13713;52.552;13.204;2023-02-23T05:50:16;75.28;;;46.90;;
25905;SDS011;13713;52.552;13.204;2023-02-23T05:52:43;68.95;;;42.70;;
25905;SDS011;13713;52.552;13.204;2023-02-23T05:55:09;70.88;;;45.47;;
25905;SDS011;13713;52.552;13.204;2023-02-23T05:57:36;72.25;;;47.55;;
25905;SDS011;13713;52.552;13.204;2023-02-23T06:00:03;73.05;;;46.03;;
25905;SDS011;13713;52.552;13.204;2023-02-23T06:02:31;63.15;;;39.88;;
25905;SDS011;13713;52.552;13.204;2023-02-23T06:04:57;62.90;;;39.10;;
25905;SDS011;13713;52.552;13.204;2023-02-23T06:07:23;63.42;;;39.83;;
25905;SDS011;13713;52.552;13.204;2023-02-23T06:09:49;60.28;;;38.38;;
25905;SDS011;13713;52.552;13.204;2023-02-23T06:12:14;65.20;;;40.40;;
25905;SDS011;13713;52.552;13.204;2023-02-23T06:14:40;61.67;;;40.80;;
25905;SDS011;13713;52.552;13.204;2023-02-23T06:17:06;63.28;;;40.22;;
25905;SDS011;13713;52.552;13.204;2023-02-23T06:19:32;64.30;;;40.13;;
25905;SDS011;13713;52.552;13.204;2023-02-23T06:21:58;63.60;;;39.83;;
25905;SDS011;13713;52.552;13.204;2023-02-23T06:24:24;63.78;;;41.55;;
25905;SDS011;13713;52.552;13.204;2023-02-23T06:26:50;62.50;;;40.20;;
25905;SDS011;13713;52.552;13.204;2023-02-23T06:29:16;57.38;;;37.20;;
25905;SDS011;13713;52.552;13.204;2023-02-23T06:31:41;56.55;;;37.30;;
25905;SDS011;13713;52.552;13.204;2023-02-23T06:34:08;53.03;;;34.92;;
25905;SDS011;13713;52.552;13.204;2023-02-23T06:36:34;51.15;;;33.03;;
25905;SDS011;13713;52.552;13.204;2023-02-23T06:39:01;53.50;;;32.83;;
25905;SDS011;13713;52.552;13.204;2023-02-23T06:41:27;48.15;;;31.40;;
25905;SDS011;13713;52.552;13.204;2023-02-23T06:43:53;43.25;;;28.10;;
25905;SDS011;13713;52.552;13.204;2023-02-23T06:46:19;50.65;;;32.33;;
25905;SDS011;13713;52.552;13.204;2023-02-23T06:48:45;63.30;;;32.97;;
25905;SDS011;13713;52.552;13.204;2023-02-23T06:51:11;47.95;;;29.10;;
25905;SDS011;13713;52.552;13.204;2023-02-23T06:53:37;47.47;;;29.17;;
25905;SDS011;13713;52.552;13.204;2023-02-23T06:56:02;40.45;;;26.55;;
25905;SDS011;13713;52.552;13.204;2023-02-23T06:58:28;43.03;;;27.90;;
25905;SDS011;13713;52.552;13.204;2023-02-23T07:00:55;46.17;;;30.08;;
25905;SDS011;13713;52.552;13.204;2023-02-23T07:03:24;45.78;;;27.70;;
25905;SDS011;13713;52.552;13.204;2023-02-23T07:05:50;40.28;;;24.98;;
25905;SDS011;13713;52.552;13.204;2023-02-23T07:08:16;43.38;;;27.38;;
25905;SDS011;13713;52.552;13.204;2023-02-23T07:10:45;38.78;;;25.15;;
25905;SDS011;13713;52.552;13.204;2023-02-23T07:13:11;52.20;;;32.97;;
25905;SDS011;13713;52.552;13.204;2023-02-23T07:15:37;52.90;;;34.65;;
25905;SDS011;13713;52.552;13.204;2023-02-23T07:18:05;54.10;;;36.60;;
25905;SDS011;13713;52.552;13.204;2023-02-23T07:20:32;53.95;;;36.05;;
25905;SDS011;13713;52.552;13.204;2023-02-23T07:22:59;48.90;;;33.05;;
25905;SDS011;13713;52.552;13.204;2023-02-23T07:25:26;69.88;;;44.45;;
25905;SDS011;13713;52.552;13.204;2023-02-23T07:27:52;68.70;;;43.75;;
25905;SDS011;13713;52.552;13.204;2023-02-23T07:30:19;64.75;;;41.67;;
25905;SDS011;13713;52.552;13.204;2023-02-23T07:32:49;63.00;;;40.42;;
25905;SDS011;13713;52.552;13.204;2023-02-23T07:35:16;66.25;;;42.83;;
25905;SDS011;13713;52.552;13.204;2023-02-23T07:37:42;79.30;;;48.97;;
25905;SDS011;13713;52.552;13.204;2023-02-23T07:40:08;85.93;;;53.05;;
25905;SDS011;13713;52.552;13.204;2023-02-23T07:42:35;85.25;;;53.63;;
25905;SDS011;13713;52.552;13.204;2023-02-23T07:45:02;75.55;;;48.03;;
25905;SDS011;13713;52.552;13.204;2023-02-23T07:47:29;70.18;;;46.20;;
25905;SDS011;13713;52.552;13.204;2023-02-23T07:49:59;79.13;;;50.17;;
25905;SDS011;13713;52.552;13.204;2023-02-23T07:52:27;70.30;;;46.05;;
25905;SDS011;13713;52.552;13.204;2023-02-23T07:54:53;69.47;;;44.13;;
25905;SDS011;13713;52.552;13.204;2023-02-23T07:57:19;66.22;;;42.05;;
25905;SDS011;13713;52.552;13.204;2023-02-23T07:59:46;62.38;;;41.72;;
25905;SDS011;13713;52.552;13.204;2023-02-23T08:02:12;74.38;;;45.13;;
25905;SDS011;13713;52.552;13.204;2023-02-23T08:04:38;73.90;;;47.55;;
25905;SDS011;13713;52.552;13.204;2023-02-23T08:07:05;72.40;;;48.97;;
25905;SDS011;13713;52.552;13.204;2023-02-23T08:09:31;74.95;;;48.10;;
25905;SDS011;13713;52.552;13.204;2023-02-23T08:11:59;71.00;;;47.40;;
25905;SDS011;13713;52.552;13.204;2023-02-23T08:14:28;70.40;;;45.70;;
25905;SDS011;13713;52.552;13.204;2023-02-23T08:16:54;73.07;;;44.60;;
25905;SDS011;13713;52.552;13.204;2023-02-23T08:19:19;76.38;;;44.05;;
25905;SDS011;13713;52.552;13.204;2023-02-23T08:21:48;58.47;;;37.90;;
25905;SDS011;13713;52.552;13.204;2023-02-23T08:24:14;68.35;;;44.90;;
25905;SDS011;13713;52.552;13.204;2023-02-23T08:26:40;72.25;;;47.95;;
25905;SDS011;13713;52.552;13.204;2023-02-23T08:29:07;77.80;;;48.50;;
25905;SDS011;13713;52.552;13.204;2023-02-23T08:31:33;71.75;;;48.00;;
25905;SDS011;13713;52.552;13.204;2023-02-23T08:33:59;69.90;;;45.88;;
25905;SDS011;13713;52.552;13.204;2023-02-23T08:36:25;74.53;;;48.75;;
25905;SDS011;13713;52.552;13.204;2023-02-23T08:38:51;76.90;;;49.33;;
25905;SDS011;13713;52.552;13.204;2023-02-23T08:41:18;85.25;;;55.80;;
25905;SDS011;13713;52.552;13.204;2023-02-23T08:43:45;91.47;;;60.20;;
25905;SDS011;13713;52.552;13.204;2023-02-23T08:46:11;94.05;;;62.45;;
25905;SDS011;13713;52.552;13.204;2023-02-23T08:48:37;99.03;;;63.15;;
25905;SDS011;13713;52.552;13.204;2023-02-23T08:51:04;92.53;;;59.40;;
25905;SDS011;13713;52.552;13.204;2023-02-23T08:53:31;93.78;;;60.83;;
25905;SDS011;13713;52.552;13.204;2023-02-23T08:55:57;91.15;;;59.92;;
25905;SDS011;13713;52.552;13.204;2023-02-23T08:58:28;124.45;;;63.08;;
25905;SDS011;13713;52.552;13.204;2023-02-23T09:01:16;94.07;;;58.65;;
25905;SDS011;13713;52.552;13.204;2023-02-23T09:03:50;94.43;;;57.25;;
25905;SDS011;13713;52.552;13.204;2023-02-23T09:06:17;87.60;;;55.78;;
25905;SDS011;13713;52.552;13.204;2023-02-23T09:08:45;111.85;;;74.60;;
25905;SDS011;13713;52.552;13.204;2023-02-23T09:11:10;199.63;;;120.72;;
25905;SDS011;13713;52.552;13.204;2023-02-23T09:13:36;114.28;;;73.85;;
25905;SDS011;13713;52.552;13.204;2023-02-23T09:16:02;102.20;;;66.40;;
25905;SDS011;13713;52.552;13.204;2023-02-23T09:18:28;101.93;;;61.50;;
25905;SDS011;13713;52.552;13.204;2023-02-23T09:20:55;98.75;;;60.42;;
25905;SDS011;13713;52.552;13.204;2023-02-23T09:23:21;93.07;;;60.63;;
25905;SDS011;13713;52.552;13.204;2023-02-23T09:25:48;89.35;;;57.60;;
25905;SDS011;13713;52.552;13.204;2023-02-23T09:28:15;94.03;;;61.03;;
25905;SDS011;13713;52.552;13.204;2023-02-23T09:30:43;100.88;;;65.47;;
25905;SDS011;13713;52.552;13.204;2023-02-23T09:33:09;96.25;;;61.88;;
25905;SDS011;13713;52.552;13.204;2023-02-23T09:35:35;114.25;;;68.72;;
25905;SDS011;13713;52.552;13.204;2023-02-23T09:38:02;113.70;;;69.70;;
25905;SDS011;13713;52.552;13.204;2023-02-23T09:40:33;113.57;;;68.15;;
25905;SDS011;13713;52.552;13.204;2023-02-23T09:46:10;107.68;;;68.47;;
25905;SDS011;13713;52.552;13.204;2023-02-23T09:48:45;112.75;;;71.78;;
25905;SDS011;13713;52.552;13.204;2023-02-23T09:51:14;103.90;;;67.57;;
25905;SDS011;13713;52.552;13.204;2023-02-23T09:53:46;101.18;;;66.07;;
25905;SDS011;13713;52.552;13.204;2023-02-23T09:58:44;118.68;;;67.63;;
25905;SDS011;13713;52.552;13.204;2023-02-23T10:01:20;100.55;;;63.33;;
25905;SDS011;13713;52.552;13.204;2023-02-23T10:03:54;97.32;;;60.83;;
25905;SDS011;13713;52.552;13.204;2023-02-23T10:06:27;87.90;;;58.67;;
25905;SDS011;13713;52.552;13.204;2023-02-23T10:09:10;89.88;;;56.05;;
25905;SDS011;13713;52.552;13.204;2023-02-23T10:22:56;122.85;;;70.07;;
25905;SDS011;13713;52.552;13.204;2023-02-23T10:25:33;161.82;;;82.53;;
25905;SDS011;13713;52.552;13.204;2023-02-23T10:28:04;114.03;;;63.40;;
25905;SDS011;13713;52.552;13.204;2023-02-23T10:30:36;114.70;;;66.03;;
25905;SDS011;13713;52.552;13.204;2023-02-23T10:33:13;114.82;;;63.53;;
25905;SDS011;13713;52.552;13.204;2023-02-23T10:35:47;113.57;;;64.88;;
25905;SDS011;13713;52.552;13.204;2023-02-23T10:41:03;697.88;;;312.33;;
25905;SDS011;13713;52.552;13.204;2023-02-23T10:43:30;357.77;;;108.55;;
25905;SDS011;13713;52.552;13.204;2023-02-23T10:45:55;186.50;;;75.38;;
25905;SDS011;13713;52.552;13.204;2023-02-23T10:48:23;142.27;;;76.93;;
25905;SDS011;13713;52.552;13.204;2023-02-23T10:50:55;138.50;;;74.72;;
25905;SDS011;13713;52.552;13.204;2023-02-23T10:53:30;242.02;;;115.80;;
25905;SDS011;13713;52.552;13.204;2023-02-23T10:56:02;155.43;;;92.25;;
25905;SDS011;13713;52.552;13.204;2023-02-23T10:58:46;139.02;;;77.65;;
25905;SDS011;13713;52.552;13.204;2023-02-23T11:01:36;114.82;;;66.93;;
25905;SDS011;13713;52.552;13.204;2023-02-23T11:04:24;127.75;;;74.63;;
25905;SDS011;13713;52.552;13.204;2023-02-23T11:09:57;113.65;;;66.25;;
25905;SDS011;13713;52.552;13.204;2023-02-23T11:12:24;124.15;;;70.25;;
25905;SDS011;13713;52.552;13.204;2023-02-23T11:14:55;134.75;;;72.90;;
25905;SDS011;13713;52.552;13.204;2023-02-23T11:17:23;121.30;;;73.57;;
25905;SDS011;13713;52.552;13.204;2023-02-23T11:30:15;89.95;;;57.45;;
25905;SDS011;13713;52.552;13.204;2023-02-23T11:33:40;86.47;;;52.05;;
25905;SDS011;13713;52.552;13.204;2023-02-23T11:40:24;90.45;;;55.20;;
25905;SDS011;13713;52.552;13.204;2023-02-23T11:42:59;86.95;;;53.55;;
25905;SDS011;13713;52.552;13.204;2023-02-23T11:45:47;99.93;;;59.08;;
25905;SDS011;13713;52.552;13.204;2023-02-23T11:49:01;95.45;;;58.25;;
25905;SDS011;13713;52.552;13.204;2023-02-23T11:51:25;114.07;;;66.88;;
25905;SDS011;13713;52.552;13.204;2023-02-23T11:53:54;108.20;;;68.03;;
25905;SDS011;13713;52.552;13.204;2023-02-23T11:56:21;94.35;;;61.17;;
25905;SDS011;13713;52.552;13.204;2023-02-23T11:59:00;89.30;;;57.42;;
25905;SDS011;13713;52.552;13.204;2023-02-23T12:01:50;96.90;;;59.25;;
25905;SDS011;13713;52.552;13.204;2023-02-23T12:04:34;91.80;;;56.75;;
25905;SDS011;13713;52.552;13.204;2023-02-23T12:12:57;98.07;;;55.80;;
25905;SDS011;13713;52.552;13.204;2023-02-23T12:24:46;102.13;;;56.78;;
25905;SDS011;13713;52.552;13.204;2023-02-23T12:27:22;114.13;;;69.72;;
25905;SDS011;13713;52.552;13.204;2023-02-23T12:35:38;96.15;;;55.83;;
25905;SDS011;13713;52.552;13.204;2023-02-23T12:38:20;117.00;;;65.05;;
25905;SDS011;13713;52.552;13.204;2023-02-23T12:41:09;107.47;;;62.83;;
25905;SDS011;13713;52.552;13.204;2023-02-23T12:43:47;115.45;;;63.63;;
25905;SDS011;13713;52.552;13.204;2023-02-23T12:46:22;135.20;;;77.20;;
25905;SDS011;13713;52.552;13.204;2023-02-23T12:49:10;116.45;;;69.00;;
25905;SDS011;13713;52.552;13.204;2023-02-23T12:54:15;146.48;;;78.60;;
25905;SDS011;13713;52.552;13.204;2023-02-23T12:59:18;117.43;;;67.05;;
25905;SDS011;13713;52.552;13.204;2023-02-23T13:01:52;129.00;;;76.20;;
25905;SDS011;13713;52.552;13.204;2023-02-23T13:16:03;105.53;;;62.75;;
25905;SDS011;13713;52.552;13.204;2023-02-23T13:19:20;106.22;;;63.42;;
25905;SDS011;13713;52.552;13.204;2023-02-23T13:22:28;112.40;;;62.35;;
25905;SDS011;13713;52.552;13.204;2023-02-23T13:24:48;99.30;;;57.28;;
25905;SDS011;13713;52.552;13.204;2023-02-23T13:27:17;97.93;;;53.53;;
25905;SDS011;13713;52.552;13.204;2023-02-23T13:29:57;98.70;;;53.50;;
25905;SDS011;13713;52.552;13.204;2023-02-23T13:32:24;101.00;;;52.13;;
25905;SDS011;13713;52.552;13.204;2023-02-23T13:37:32;92.63;;;52.85;;
25905;SDS011;13713;52.552;13.204;2023-02-23T13:42:41;125.93;;;56.88;;
25905;SDS011;13713;52.552;13.204;2023-02-23T13:45:15;107.43;;;52.78;;
25905;SDS011;13713;52.552;13.204;2023-02-23T13:48:00;96.97;;;52.97;;
25905;SDS011;13713;52.552;13.204;2023-02-23T13:53:27;126.32;;;66.18;;
25905;SDS011;13713;52.552;13.204;2023-02-23T13:56:03;125.28;;;68.18;;
25905;SDS011;13713;52.552;13.204;2023-02-23T13:58:35;163.32;;;74.80;;
25905;SDS011;13713;52.552;13.204;2023-02-23T14:01:07;129.55;;;74.68;;
25905;SDS011;13713;52.552;13.204;2023-02-23T14:03:48;144.00;;;80.78;;
25905;SDS011;13713;52.552;13.204;2023-02-23T14:06:18;136.23;;;75.35;;
25905;SDS011;13713;52.552;13.204;2023-02-23T14:08:51;131.13;;;76.45;;
25905;SDS011;13713;52.552;13.204;2023-02-23T14:11:27;143.00;;;78.72;;
25905;SDS011;13713;52.552;13.204;2023-02-23T14:14:10;138.75;;;79.28;;
25905;SDS011;13713;52.552;13.204;2023-02-23T14:16:38;135.07;;;76.70;;
25905;SDS011;13713;52.552;13.204;2023-02-23T14:22:07;132.32;;;74.65;;
25905;SDS011;13713;52.552;13.204;2023-02-23T14:24:37;122.68;;;73.20;;
25905;SDS011;13713;52.552;13.204;2023-02-23T14:27:05;123.38;;;70.88;;
25905;SDS011;13713;52.552;13.204;2023-02-23T14:29:37;124.93;;;71.63;;
25905;SDS011;13713;52.552;13.204;2023-02-23T14:39:54;130.95;;;79.38;;
25905;SDS011;13713;52.552;13.204;2023-02-23T14:42:27;155.43;;;96.38;;
25905;SDS011;13713;52.552;13.204;2023-02-23T14:44:57;221.07;;;143.23;;
25905;SDS011;13713;52.552;13.204;2023-02-23T14:47:29;211.60;;;134.80;;
25905;SDS011;13713;52.552;13.204;2023-02-23T14:50:07;160.93;;;98.68;;
25905;SDS011;13713;52.552;13.204;2023-02-23T14:52:41;166.88;;;103.75;;
25905;SDS011;13713;52.552;13.204;2023-02-23T14:57:37;156.13;;;96.68;;
25905;SDS011;13713;52.552;13.204;2023-02-23T15:00:14;148.82;;;89.93;;
25905;SDS011;13713;52.552;13.204;2023-02-23T15:02:53;165.15;;;98.70;;
25905;SDS011;13713;52.552;13.204;2023-02-23T15:07:51;169.32;;;104.43;;
25905;SDS011;13713;52.552;13.204;2023-02-23T15:10:24;149.10;;;84.97;;
25905;SDS011;13713;52.552;13.204;2023-02-23T15:12:55;142.98;;;85.35;;
25905;SDS011;13713;52.552;13.204;2023-02-23T15:15:22;146.18;;;83.65;;
25905;SDS011;13713;52.552;13.204;2023-02-23T15:17:50;135.90;;;82.95;;
25905;SDS011;13713;52.552;13.204;2023-02-23T15:20:20;131.73;;;76.35;;
25905;SDS011;13713;52.552;13.204;2023-02-23T15:22:50;116.95;;;72.63;;
25905;SDS011;13713;52.552;13.204;2023-02-23T15:25:24;118.43;;;70.60;;
25905;SDS011;13713;52.552;13.204;2023-02-23T15:27:57;115.05;;;71.65;;
25905;SDS011;13713;52.552;13.204;2023-02-23T15:30:28;117.07;;;67.85;;
25905;SDS011;13713;52.552;13.204;2023-02-23T15:33:02;130.63;;;73.53;;
25905;SDS011;13713;52.552;13.204;2023-02-23T15:35:32;120.22;;;69.45;;
25905;SDS011;13713;52.552;13.204;2023-02-23T15:38:06;121.55;;;70.65;;
25905;SDS011;13713;52.552;13.204;2023-02-23T15:40:32;126.70;;;69.05;;
25905;SDS011;13713;52.552;13.204;2023-02-23T15:42:58;116.95;;;67.97;;
25905;SDS011;13713;52.552;13.204;2023-02-23T15:47:54;102.00;;;58.42;;
25905;SDS011;13713;52.552;13.204;2023-02-23T15:50:27;104.88;;;61.78;;
25905;SDS011;13713;52.552;13.204;2023-02-23T15:53:04;135.32;;;85.93;;
25905;SDS011;13713;52.552;13.204;2023-02-23T15:55:37;107.45;;;69.28;;
25905;SDS011;13713;52.552;13.204;2023-02-23T15:58:20;128.55;;;81.25;;
25905;SDS011;13713;52.552;13.204;2023-02-23T16:00:52;113.53;;;68.88;;
25905;SDS011;13713;52.552;13.204;2023-02-23T16:03:27;115.78;;;68.85;;
25905;SDS011;13713;52.552;13.204;2023-02-23T16:08:30;108.40;;;66.15;;
25905;SDS011;13713;52.552;13.204;2023-02-23T16:11:07;108.85;;;64.03;;
25905;SDS011;13713;52.552;13.204;2023-02-23T16:13:41;115.10;;;73.43;;
25905;SDS011;13713;52.552;13.204;2023-02-23T16:16:08;116.32;;;72.07;;
25905;SDS011;13713;52.552;13.204;2023-02-23T16:18:42;111.13;;;70.55;;
25905;SDS011;13713;52.552;13.204;2023-02-23T16:21:13;113.60;;;73.47;;
25905;SDS011;13713;52.552;13.204;2023-02-23T16:23:43;116.07;;;72.60;;
25905;SDS011;13713;52.552;13.204;2023-02-23T16:26:33;118.50;;;73.30;;
25905;SDS011;13713;52.552;13.204;2023-02-23T16:29:05;111.38;;;69.32;;
25905;SDS011;13713;52.552;13.204;2023-02-23T16:34:24;106.53;;;66.53;;
25905;SDS011;13713;52.552;13.204;2023-02-23T16:37:15;105.13;;;65.13;;
25905;SDS011;13713;52.552;13.204;2023-02-23T16:39:50;111.75;;;66.72;;
25905;SDS011;13713;52.552;13.204;2023-02-23T16:44:48;100.63;;;62.25;;
25905;SDS011;13713;52.552;13.204;2023-02-23T16:49:49;103.28;;;60.70;;
25905;SDS011;13713;52.552;13.204;2023-02-23T16:52:16;90.63;;;57.42;;
25905;SDS011;13713;52.552;13.204;2023-02-23T16:54:46;95.13;;;58.25;;
25905;SDS011;13713;52.552;13.204;2023-02-23T16:57:29;100.40;;;61.88;;
25905;SDS011;13713;52.552;13.204;2023-02-23T17:00:03;99.13;;;59.17;;
25905;SDS011;13713;52.552;13.204;2023-02-23T17:02:38;96.07;;;58.55;;
25905;SDS011;13713;52.552;13.204;2023-02-23T17:05:14;92.40;;;57.75;;
25905;SDS011;13713;52.552;13.204;2023-02-23T17:07:43;90.22;;;56.13;;
25905;SDS011;13713;52.552;13.204;2023-02-23T17:10:14;96.38;;;56.58;;